This demonstration page uses our WeatherBlox Daily Observations layout. Learn more.

Left ArrowRight Arrow

36.17497, -115.13722

Hourly Observations for October 6, 2019

Temp ( °F °C ) Dew Point ( °F °C ) Humidity (%) Winds ( mph kmh ) Pressure ( in mb ) Visibility ( mi km ) Precip ( " mm )
12:53 am 00:53 Clear 67 19.4 14 -10 13 13 NNW 9 15 30.04 1017 10 16.0934 N/A
1:53 am 01:53 Clear 65 18.3 19 -7.2 17 17 W 6 9 30.05 1018 10 16.0934 N/A
2:53 am 02:53 Clear 64 17.8 19 -7.2 18 18 W 7 11 30.06 1018 10 16.0934 N/A
3:53 am 03:53 Clear 66 18.9 11 -11.7 11 11 NNW 10 17 30.07 1018 10 16.0934 N/A
4:53 am 04:53 Clear 64 17.8 11 -11.7 12 12 N 6 9 30.1 1019 10 16.0934 N/A
5:53 am 05:53 Clear 64 17.8 9 -12.8 11 11 WNW 6 9 30.13 1020 10 16.0934 N/A
6:53 am 06:53 Sunny 63 17.2 13 -10.6 14 14 N N/A 30.16 1021 10 16.0934 N/A
7:53 am 07:53 Sunny 66 18.9 13 -10.6 13 13 WNW 6 9 30.19 1022 10 16.0934 N/A
8:53 am 08:53 Sunny 70 21.1 18 -7.8 14 14 NNW 6 9 30.21 1023 10 16.0934 N/A
9:53 am 09:53 Sunny 75 23.9 18 -7.8 11 11 NW 3 6 30.22 1024 10 16.0934 N/A
10:53 am 10:53 Sunny 75 23.9 19 -7.2 12 12 N N/A 30.23 1024 10 16.0934 N/A
11:53 am 11:53 Sunny 78 25.6 20 -6.7 11 11 NNW 3 6 30.22 1023 10 16.0934 N/A
12:53 pm 12:53 Sunny 79 26.1 20 -6.7 11 11 N N/A 30.19 1022 10 16.0934 N/A
1:53 pm 13:53 Sunny 80 26.7 20 -6.7 10 10 N N/A 30.15 1021 10 16.0934 N/A
2:53 pm 14:53 Sunny 83 28.3 21 -6.1 10 10 N 5 7 30.13 1020 10 16.0934 N/A
3:53 pm 15:53 Sunny 84 28.9 22 -5.6 10 10 VRB 3 6 30.1 1019 10 16.0934 N/A
4:53 pm 16:53 Sunny 83 28.3 22 -5.6 10 10 N N/A 30.08 1019 10 16.0934 N/A
5:53 pm 17:53 Sunny 82 27.8 21 -6.1 10 10 N N/A 30.08 1019 10 16.0934 N/A
6:53 pm 18:53 Clear 80 26.7 22 -5.6 11 11 N N/A 30.08 1019 10 16.0934 N/A
7:53 pm 19:53 Clear 78 25.6 24 -4.4 13 13 N N/A 30.09 1019 10 16.0934 N/A
8:53 pm 20:53 Clear 72 22.2 27 -2.8 19 19 NW 7 11 30.1 1019 10 16.0934 N/A
9:53 pm 21:53 Clear 70 21.1 24 -4.4 18 18 WNW 7 11 30.1 1019 10 16.0934 N/A
10:53 pm 22:53 Clear 67 19.4 23 -5 19 19 SE 5 7 30.11 1020 10 16.0934 N/A
11:53 pm 23:53 Clear 68 20 25 -3.9 20 20 N N/A 30.1 1019 10 16.0934 N/A

Powered by AerisWeather